createdAt,value
2017-12-12T00:01:02.656Z,96.10
2017-12-12T00:02:08.554Z,96.50
2017-12-12T00:03:13.271Z,96.50
2017-12-12T00:04:17.656Z,96.30
2017-12-12T00:05:21.875Z,96.90
2017-12-12T00:06:26.229Z,96.60
2017-12-12T00:07:31.456Z,96.60
2017-12-12T00:08:35.831Z,96.50
2017-12-12T00:09:40.358Z,96.10
2017-12-12T00:10:44.585Z,96.20
2017-12-12T00:11:49.576Z,95.80
2017-12-12T00:12:53.764Z,95.80
2017-12-12T00:13:58.294Z,95.60
2017-12-12T00:15:02.551Z,95.90
2017-12-12T00:16:06.791Z,96.00
2017-12-12T00:17:11.014Z,96.10
2017-12-12T00:18:16.033Z,96.10
2017-12-12T00:19:20.531Z,96.10
2017-12-12T00:20:25.156Z,96.10
2017-12-12T00:21:29.576Z,96.30
2017-12-12T00:22:42.669Z,96.50
2017-12-12T00:23:47.066Z,96.70
2017-12-12T00:24:51.586Z,96.80
2017-12-12T00:25:55.969Z,96.80
2017-12-12T00:27:00.001Z,96.50
2017-12-12T00:28:04.013Z,96.70
2017-12-12T00:29:08.079Z,96.90
2017-12-12T00:30:12.208Z,96.70
2017-12-12T00:31:16.518Z,96.80
2017-12-12T00:32:21.005Z,97.00
2017-12-12T00:33:25.265Z,97.00
2017-12-12T00:34:30.143Z,97.30
2017-12-12T00:35:34.921Z,97.30
2017-12-12T00:36:39.823Z,97.40
2017-12-12T00:37:44.869Z,97.50
2017-12-12T00:38:49.805Z,97.50
2017-12-12T00:39:53.963Z,97.50
2017-12-12T00:40:58.251Z,97.70
2017-12-12T00:42:02.503Z,97.80
2017-12-12T00:43:07.525Z,97.80
2017-12-12T00:44:12.808Z,98.00
2017-12-12T00:45:17.515Z,98.00
2017-12-12T00:46:21.676Z,98.10
2017-12-12T00:47:26.626Z,98.10
2017-12-12T00:48:30.861Z,98.10
2017-12-12T00:49:35.063Z,98.20
2017-12-12T00:50:39.551Z,98.10
2017-12-12T00:51:43.822Z,98.10
2017-12-12T00:52:48.743Z,98.30
2017-12-12T00:53:53.725Z,98.30
2017-12-12T00:54:58.289Z,98.30
2017-12-12T00:56:02.599Z,98.50
2017-12-12T00:57:07.366Z,98.70
2017-12-12T00:58:11.451Z,98.60
2017-12-12T00:59:15.530Z,98.60
2017-12-12T01:00:19.548Z,98.50
2017-12-12T01:01:23.626Z,98.40
2017-12-12T01:02:28.181Z,98.40
2017-12-12T01:03:32.217Z,98.50
2017-12-12T01:04:36.376Z,98.40
2017-12-12T01:05:40.876Z,98.30
2017-12-12T01:06:44.857Z,98.40
2017-12-12T01:07:48.919Z,98.40
2017-12-12T01:08:54.984Z,98.20
2017-12-12T01:10:01.770Z,98.20
2017-12-12T01:11:05.894Z,98.30
2017-12-12T01:12:10.215Z,98.60
2017-12-12T01:13:14.327Z,98.20
2017-12-12T01:14:18.866Z,98.10
2017-12-12T01:15:23.962Z,98.10
2017-12-12T01:16:28.175Z,98.10
2017-12-12T01:17:32.593Z,98.00
2017-12-12T01:18:37.470Z,98.10
2017-12-12T01:19:43.693Z,98.10
2017-12-12T01:20:49.542Z,98.20
2017-12-12T01:21:53.906Z,98.40
2017-12-12T01:22:58.157Z,98.40
2017-12-12T01:24:04.229Z,98.10
2017-12-12T01:25:08.956Z,98.10
2017-12-12T01:26:14.440Z,98.30
2017-12-12T01:27:19.739Z,98.20
2017-12-12T01:28:23.927Z,98.20
2017-12-12T01:29:28.468Z,98.20
2017-12-12T01:30:33.270Z,98.30
2017-12-12T01:31:39.402Z,98.50
2017-12-12T01:32:44.363Z,98.50
2017-12-12T01:33:49.357Z,98.60
2017-12-12T01:34:53.594Z,98.60
2017-12-12T01:35:58.082Z,98.20
2017-12-12T01:37:03.958Z,98.20
2017-12-12T01:38:09.364Z,98.10
2017-12-12T01:39:14.115Z,98.10
2017-12-12T01:40:19.726Z,98.10
2017-12-12T01:41:23.962Z,98.10
2017-12-12T01:42:29.293Z,98.10
2017-12-12T01:43:34.442Z,98.10
2017-12-12T01:44:38.686Z,98.00
2017-12-12T01:45:42.994Z,98.30
2017-12-12T01:46:47.239Z,98.60
2017-12-12T01:47:51.361Z,98.60
2017-12-12T01:48:55.912Z,98.60
2017-12-12T01:50:00.044Z,98.80
2017-12-12T01:51:04.151Z,98.60
2017-12-12T01:52:08.423Z,98.70
2017-12-12T01:53:12.545Z,98.70
2017-12-12T01:54:17.035Z,98.70
2017-12-12T01:55:21.339Z,98.80
2017-12-12T01:56:25.645Z,98.60
2017-12-12T01:57:30.120Z,98.40
2017-12-12T01:58:34.909Z,98.30
2017-12-12T01:59:39.287Z,98.40
2017-12-12T02:00:44.098Z,98.50
2017-12-12T02:01:48.623Z,98.60
2017-12-12T02:02:53.160Z,98.60
2017-12-12T02:03:57.938Z,98.70
2017-12-12T02:05:02.954Z,98.60
2017-12-12T02:06:07.566Z,98.80
2017-12-12T02:07:18.190Z,98.90
2017-12-12T02:08:23.431Z,98.90
2017-12-12T02:09:27.962Z,98.90
2017-12-12T02:10:32.300Z,99.00
2017-12-12T02:11:37.365Z,99.00
2017-12-12T02:12:42.745Z,99.00
2017-12-12T02:13:49.160Z,99.00
2017-12-12T02:14:53.630Z,99.00
2017-12-12T02:15:57.950Z,98.80
2017-12-12T02:17:02.657Z,98.80
2017-12-12T02:18:07.185Z,98.80
2017-12-12T02:19:11.537Z,98.80
2017-12-12T02:20:15.903Z,98.70
2017-12-12T02:21:20.503Z,98.80
2017-12-12T02:22:25.110Z,98.90
2017-12-12T02:23:30.042Z,98.80
2017-12-12T02:24:34.357Z,98.90
2017-12-12T02:25:39.093Z,98.80
2017-12-12T02:26:43.486Z,98.90
2017-12-12T02:27:47.862Z,98.70
2017-12-12T02:28:52.385Z,98.80
2017-12-12T02:29:56.806Z,98.90
2017-12-12T02:31:01.552Z,98.80
2017-12-12T02:32:06.606Z,98.90
2017-12-12T02:33:10.793Z,98.90
2017-12-12T02:34:14.940Z,98.80
2017-12-12T02:35:19.311Z,98.70
2017-12-12T02:36:23.695Z,98.70
2017-12-12T02:37:28.733Z,98.60
2017-12-12T02:38:33.290Z,98.70
2017-12-12T02:39:37.795Z,98.60
2017-12-12T02:40:42.313Z,98.70
2017-12-12T02:41:46.465Z,98.60
2017-12-12T02:42:51.740Z,98.70
2017-12-12T02:43:56.059Z,98.70
2017-12-12T02:45:00.694Z,98.70
2017-12-12T02:46:05.012Z,98.60
2017-12-12T02:47:09.373Z,98.70
2017-12-12T02:48:14.303Z,98.70
2017-12-12T02:49:18.614Z,98.70
2017-12-12T02:50:23.126Z,98.70
2017-12-12T02:51:27.684Z,98.80
2017-12-12T02:52:32.966Z,98.50
2017-12-12T02:53:37.470Z,98.40
2017-12-12T02:54:41.999Z,98.20
2017-12-12T02:55:47.033Z,98.30
2017-12-12T02:56:53.676Z,98.40
2017-12-12T02:57:58.594Z,98.20
2017-12-12T02:59:04.964Z,98.60
2017-12-12T03:00:09.870Z,98.60
2017-12-12T03:01:14.364Z,98.70
2017-12-12T03:02:18.987Z,98.60
2017-12-12T03:03:23.437Z,98.30
2017-12-12T03:04:27.774Z,98.20
2017-12-12T03:05:32.740Z,98.20
2017-12-12T03:06:36.953Z,98.40
2017-12-12T03:07:41.330Z,98.40
2017-12-12T03:08:45.760Z,98.30
2017-12-12T03:09:50.347Z,98.30
2017-12-12T03:10:55.157Z,98.50
2017-12-12T03:12:00.127Z,98.60
2017-12-12T03:13:04.549Z,98.50
2017-12-12T03:14:10.871Z,98.40
2017-12-12T03:15:15.432Z,98.40
2017-12-12T03:16:20.927Z,98.60
2017-12-12T03:17:25.446Z,98.50
2017-12-12T03:18:30.286Z,98.40
2017-12-12T03:19:35.201Z,98.50
2017-12-12T03:20:40.055Z,98.40
2017-12-12T03:21:44.363Z,98.50
2017-12-12T03:22:50.325Z,98.40
2017-12-12T03:23:54.762Z,98.40
2017-12-12T03:24:59.130Z,98.70
2017-12-12T03:26:04.314Z,98.10
2017-12-12T03:27:08.655Z,98.10
2017-12-12T03:28:13.576Z,98.40
2017-12-12T03:29:18.837Z,98.10
2017-12-12T03:30:22.965Z,98.10
2017-12-12T03:31:27.284Z,98.20
2017-12-12T03:32:32.393Z,98.30
2017-12-12T03:33:36.718Z,98.10
2017-12-12T03:34:41.010Z,98.10
2017-12-12T03:35:45.719Z,98.30
2017-12-12T03:36:50.007Z,98.30
2017-12-12T03:37:54.378Z,98.30
2017-12-12T03:38:58.657Z,98.10
2017-12-12T03:40:03.856Z,98.10
2017-12-12T03:41:08.408Z,98.10
2017-12-12T03:42:13.457Z,98.10
2017-12-12T03:43:18.577Z,98.10
2017-12-12T03:44:24.040Z,98.10
2017-12-12T03:45:29.422Z,98.10
2017-12-12T03:46:33.983Z,98.10
2017-12-12T03:47:38.964Z,97.80
2017-12-12T03:48:43.299Z,97.70
2017-12-12T03:49:48.681Z,97.60
2017-12-12T03:50:52.878Z,97.60
2017-12-12T03:51:57.159Z,97.60
2017-12-12T03:53:01.419Z,97.70
2017-12-12T03:54:05.851Z,97.80
2017-12-12T03:55:10.806Z,97.60
2017-12-12T03:56:15.045Z,97.60
2017-12-12T03:57:19.566Z,97.70
2017-12-12T03:58:23.997Z,97.70
2017-12-12T03:59:29.179Z,97.70
2017-12-12T04:00:33.967Z,97.90
2017-12-12T04:01:38.855Z,98.00
2017-12-12T04:02:43.522Z,97.90
2017-12-12T04:03:48.326Z,98.10
2017-12-12T04:04:52.649Z,98.30
2017-12-12T04:05:57.318Z,98.30
2017-12-12T04:07:02.954Z,98.10
2017-12-12T04:08:07.543Z,98.10
2017-12-12T04:09:11.849Z,98.20
2017-12-12T04:10:16.163Z,98.40
2017-12-12T04:11:20.400Z,98.40
2017-12-12T04:12:25.915Z,98.20
2017-12-12T04:13:32.136Z,98.20
2017-12-12T04:14:36.523Z,98.20
2017-12-12T04:15:41.382Z,98.20
2017-12-12T04:16:45.873Z,98.40
2017-12-12T04:17:50.339Z,98.60
2017-12-12T04:18:55.823Z,98.80
2017-12-12T04:20:00.415Z,98.80
2017-12-12T04:21:05.546Z,99.20
2017-12-12T04:22:09.989Z,98.90
2017-12-12T04:23:15.541Z,98.90
2017-12-12T04:24:20.356Z,99.00
2017-12-12T04:25:24.799Z,99.10
2017-12-12T04:26:29.223Z,99.20
2017-12-12T04:27:34.640Z,99.10
2017-12-12T04:28:39.368Z,99.10
2017-12-12T04:29:43.746Z,99.00
2017-12-12T04:30:48.735Z,98.90
2017-12-12T04:31:53.292Z,98.90
2017-12-12T04:32:57.838Z,99.00
2017-12-12T04:34:02.396Z,99.00
2017-12-12T04:35:06.687Z,98.90
2017-12-12T04:36:11.387Z,99.00
2017-12-12T04:37:15.899Z,98.90
2017-12-12T04:38:20.061Z,98.80
2017-12-12T04:39:25.332Z,99.00
2017-12-12T04:40:29.463Z,99.00
2017-12-12T04:41:33.561Z,99.00
2017-12-12T04:42:38.864Z,99.10
2017-12-12T04:43:43.130Z,98.90
2017-12-12T04:44:48.281Z,98.80
2017-12-12T04:45:52.641Z,98.80
2017-12-12T04:46:56.983Z,98.60
2017-12-12T04:48:01.290Z,98.50
2017-12-12T04:49:06.274Z,98.30
2017-12-12T04:50:10.589Z,98.70
2017-12-12T04:51:15.150Z,98.20
2017-12-12T04:52:19.833Z,98.10
2017-12-12T04:53:24.853Z,98.20
2017-12-12T04:54:30.727Z,98.00
2017-12-12T04:55:35.461Z,98.00
2017-12-12T04:56:39.788Z,97.90
2017-12-12T04:57:44.508Z,97.90
2017-12-12T04:58:49.015Z,97.80
2017-12-12T04:59:53.543Z,97.70
2017-12-12T05:00:58.541Z,97.50
2017-12-12T05:02:02.953Z,97.50
2017-12-12T05:03:07.626Z,97.40
2017-12-12T05:04:12.128Z,97.20
2017-12-12T05:05:16.474Z,97.10
2017-12-12T05:06:21.089Z,97.10
2017-12-12T05:07:25.519Z,97.60
2017-12-12T05:08:30.000Z,96.90
2017-12-12T05:09:34.401Z,96.80
2017-12-12T05:10:38.565Z,96.80
2017-12-12T05:11:42.658Z,97.00
2017-12-12T05:12:47.268Z,97.20
2017-12-12T05:13:51.503Z,97.40
2017-12-12T05:14:56.537Z,97.50
2017-12-12T05:16:01.443Z,97.30
2017-12-12T05:17:05.491Z,97.20
2017-12-12T05:18:09.602Z,97.30
2017-12-12T05:19:14.515Z,97.20
2017-12-12T05:20:18.901Z,97.40
2017-12-12T05:21:23.207Z,97.30
2017-12-12T05:22:27.546Z,97.20
2017-12-12T05:23:31.838Z,97.10
2017-12-12T05:24:36.585Z,97.10
2017-12-12T05:25:41.288Z,97.20
2017-12-12T05:26:45.330Z,97.20
2017-12-12T05:27:49.454Z,97.10
2017-12-12T05:28:53.597Z,97.10
2017-12-12T05:29:58.013Z,97.20
2017-12-12T05:31:02.759Z,97.00
2017-12-12T05:32:07.252Z,97.10
2017-12-12T05:33:11.351Z,96.90
2017-12-12T05:34:15.475Z,96.90
2017-12-12T05:35:19.776Z,96.80
2017-12-12T05:36:24.003Z,96.90
2017-12-12T05:37:29.510Z,96.50
2017-12-12T05:38:33.951Z,96.50
2017-12-12T05:39:39.108Z,96.50
2017-12-12T05:40:43.539Z,96.50
2017-12-12T05:41:47.848Z,96.40
2017-12-12T05:42:52.170Z,96.70
2017-12-12T05:43:56.415Z,96.50
2017-12-12T05:45:01.576Z,96.70
2017-12-12T05:46:05.650Z,96.70
2017-12-12T05:47:09.790Z,96.90
2017-12-12T05:48:14.251Z,96.40
2017-12-12T05:49:19.322Z,96.10
2017-12-12T05:50:23.562Z,96.10
2017-12-12T05:51:27.933Z,96.20
2017-12-12T05:52:32.272Z,96.30
2017-12-12T05:53:37.326Z,96.40
2017-12-12T05:54:42.404Z,96.50
2017-12-12T05:55:46.850Z,96.50
2017-12-12T05:56:52.003Z,96.30
2017-12-12T05:57:56.250Z,96.30
2017-12-12T05:59:00.492Z,96.60
2017-12-12T06:00:05.591Z,96.60
2017-12-12T06:01:10.167Z,96.50
2017-12-12T06:02:14.477Z,96.60
2017-12-12T06:03:18.715Z,96.60
2017-12-12T06:04:22.895Z,96.20
2017-12-12T06:05:27.168Z,96.20
2017-12-12T06:06:31.374Z,96.00
2017-12-12T06:07:36.158Z,96.10
2017-12-12T06:08:40.436Z,96.50
2017-12-12T06:09:44.722Z,96.60
2017-12-12T06:10:48.961Z,96.00
2017-12-12T06:11:53.317Z,96.40
2017-12-12T06:12:57.659Z,95.90
2017-12-12T06:14:02.006Z,96.10
2017-12-12T06:15:06.403Z,95.90
2017-12-12T06:16:10.518Z,95.70
2017-12-12T06:17:14.606Z,95.70
2017-12-12T06:18:18.812Z,95.80
2017-12-12T06:19:24.051Z,96.00
2017-12-12T06:20:28.296Z,96.00
2017-12-12T06:21:32.682Z,96.00
2017-12-12T06:22:36.834Z,96.20
2017-12-12T06:23:41.151Z,95.70
2017-12-12T06:24:45.569Z,95.80
2017-12-12T06:25:50.401Z,95.70
2017-12-12T06:26:54.716Z,95.70
2017-12-12T06:27:59.083Z,95.70
2017-12-12T06:29:03.515Z,95.70
2017-12-12T06:30:09.081Z,95.70
2017-12-12T06:31:14.249Z,96.00
2017-12-12T06:32:18.558Z,96.00
2017-12-12T06:33:22.868Z,95.90
2017-12-12T06:34:27.257Z,95.80
2017-12-12T06:35:31.526Z,96.00
2017-12-12T06:36:36.764Z,96.10
2017-12-12T06:37:41.874Z,95.80
2017-12-12T06:38:46.053Z,95.70
2017-12-12T06:39:50.260Z,95.70
2017-12-12T06:40:54.631Z,95.70
2017-12-12T06:41:58.977Z,95.90
2017-12-12T06:43:03.255Z,95.60
2017-12-12T06:44:07.518Z,95.50
2017-12-12T06:45:12.204Z,95.60
2017-12-12T06:46:16.321Z,95.20
2017-12-12T06:47:20.491Z,95.40
2017-12-12T06:48:24.615Z,95.60
2017-12-12T06:49:28.898Z,95.70
2017-12-12T06:50:33.470Z,95.60
2017-12-12T06:51:38.302Z,95.60
2017-12-12T06:52:43.170Z,95.40
2017-12-12T06:53:47.342Z,95.40
2017-12-12T06:54:51.690Z,95.50
2017-12-12T06:55:56.039Z,95.70
2017-12-12T06:57:01.167Z,95.50
2017-12-12T06:58:06.210Z,95.50
2017-12-12T06:59:10.511Z,95.40
2017-12-12T07:00:14.936Z,95.50
2017-12-12T07:01:19.231Z,95.60
2017-12-12T07:02:23.578Z,95.50
2017-12-12T07:03:27.784Z,95.50
2017-12-12T07:04:32.038Z,95.30
2017-12-12T07:05:36.193Z,95.40
2017-12-12T07:06:40.350Z,95.50
2017-12-12T07:07:45.288Z,95.40
2017-12-12T07:08:50.137Z,95.60
2017-12-12T07:09:54.352Z,95.80
2017-12-12T07:10:58.597Z,95.40
2017-12-12T07:12:02.954Z,95.40
2017-12-12T07:13:07.045Z,95.40
2017-12-12T07:14:11.548Z,95.60
2017-12-12T07:15:15.879Z,95.80
2017-12-12T07:16:19.966Z,95.50
2017-12-12T07:17:24.626Z,95.50
2017-12-12T07:18:30.381Z,95.60
2017-12-12T07:19:34.586Z,95.60
2017-12-12T07:20:39.562Z,95.50
2017-12-12T07:21:43.651Z,95.50
2017-12-12T07:22:47.746Z,95.60
2017-12-12T07:23:51.729Z,95.90
2017-12-12T07:25:33.904Z,95.90
2017-12-12T07:26:38.910Z,95.60
2017-12-12T07:27:43.857Z,95.70
2017-12-12T07:28:48.737Z,95.80
2017-12-12T07:29:52.818Z,95.80
2017-12-12T07:30:57.180Z,95.90
2017-12-12T07:32:01.738Z,96.00
2017-12-12T07:33:05.961Z,95.60
2017-12-12T07:34:10.182Z,95.70
2017-12-12T07:35:14.229Z,95.70
2017-12-12T07:36:18.341Z,95.60
2017-12-12T07:37:22.754Z,95.90
2017-12-12T07:38:27.097Z,96.00
2017-12-12T07:39:31.167Z,96.10
2017-12-12T07:40:35.178Z,95.80
2017-12-12T07:41:39.232Z,95.90
2017-12-12T07:42:44.165Z,95.80
2017-12-12T07:43:49.024Z,96.00
2017-12-12T07:44:53.117Z,96.00
2017-12-12T07:45:57.153Z,96.10
2017-12-12T07:47:01.189Z,96.00
2017-12-12T07:48:05.508Z,95.80
2017-12-12T07:49:09.550Z,95.70
2017-12-12T07:50:14.042Z,95.50
2017-12-12T07:51:18.100Z,95.40
2017-12-12T07:52:22.975Z,95.30
2017-12-12T07:53:27.048Z,95.30
2017-12-12T07:54:31.157Z,95.50
2017-12-12T07:55:35.202Z,95.10
2017-12-12T07:56:39.662Z,94.90
2017-12-12T07:57:44.126Z,94.90
2017-12-12T07:58:49.145Z,95.00
2017-12-12T07:59:53.291Z,95.00
2017-12-12T08:00:57.374Z,95.20
2017-12-12T08:02:02.192Z,95.40
2017-12-12T08:03:07.020Z,95.20
2017-12-12T08:04:11.139Z,95.20
2017-12-12T08:05:15.316Z,95.20
2017-12-12T08:06:20.265Z,94.90
2017-12-12T08:07:24.402Z,94.90
2017-12-12T08:08:28.769Z,95.00
2017-12-12T08:09:32.913Z,94.90
2017-12-12T08:10:37.006Z,95.00
2017-12-12T08:11:41.101Z,95.30
2017-12-12T08:12:46.385Z,95.20
2017-12-12T08:13:51.439Z,95.10
2017-12-12T08:14:55.827Z,95.00
2017-12-12T08:15:59.954Z,94.80
2017-12-12T08:17:03.988Z,94.80
2017-12-12T08:18:08.222Z,94.90
2017-12-12T08:19:12.342Z,94.60
2017-12-12T08:20:16.421Z,94.70
2017-12-12T08:21:20.644Z,94.80
2017-12-12T08:22:25.535Z,94.90
2017-12-12T08:23:29.529Z,94.90
2017-12-12T08:24:33.771Z,95.00
2017-12-12T08:25:38.513Z,94.90
2017-12-12T08:26:42.786Z,94.90
2017-12-12T08:27:47.780Z,95.20
2017-12-12T08:28:51.981Z,95.20
2017-12-12T08:29:56.144Z,95.00
2017-12-12T08:31:00.327Z,95.00
2017-12-12T08:32:04.623Z,94.80
2017-12-12T08:33:09.653Z,94.90
2017-12-12T08:34:14.933Z,94.80
2017-12-12T08:35:19.158Z,94.80
2017-12-12T08:36:23.227Z,94.70
2017-12-12T08:37:27.551Z,95.10
2017-12-12T08:38:31.599Z,94.90
2017-12-12T08:39:36.746Z,94.70
2017-12-12T08:40:40.818Z,94.70
2017-12-12T08:41:45.670Z,94.30
2017-12-12T08:42:49.760Z,94.30
2017-12-12T08:43:54.053Z,94.20
2017-12-12T08:44:58.216Z,94.70
2017-12-12T08:46:02.462Z,94.60
2017-12-12T08:47:07.416Z,94.70
2017-12-12T08:48:11.658Z,94.70
2017-12-12T08:49:16.771Z,94.60
2017-12-12T08:50:20.956Z,94.60
2017-12-12T08:51:25.061Z,94.50
2017-12-12T08:52:29.385Z,94.20
2017-12-12T08:53:33.562Z,94.10
2017-12-12T08:54:37.605Z,93.70
2017-12-12T08:55:41.631Z,93.90
2017-12-12T08:56:46.406Z,94.00
2017-12-12T08:57:50.552Z,94.00
2017-12-12T08:58:55.404Z,93.80
2017-12-12T08:59:59.452Z,93.80
2017-12-12T09:01:03.549Z,93.80
2017-12-12T09:02:07.665Z,93.80
2017-12-12T09:03:11.753Z,93.90
2017-12-12T09:04:15.805Z,93.80
2017-12-12T09:05:19.781Z,93.80
2017-12-12T09:06:24.525Z,93.70
2017-12-12T09:07:28.630Z,93.70
2017-12-12T09:08:32.662Z,93.60
2017-12-12T09:09:36.842Z,93.60
2017-12-12T09:10:40.895Z,93.50
2017-12-12T09:11:45.770Z,93.50
2017-12-12T09:12:49.828Z,93.40
2017-12-12T09:13:54.698Z,93.00
2017-12-12T09:14:59.072Z,93.00
2017-12-12T09:16:03.170Z,92.90
2017-12-12T09:17:07.949Z,93.10
2017-12-12T09:18:12.025Z,93.10
2017-12-12T09:19:16.162Z,93.30
2017-12-12T09:20:20.209Z,93.80
2017-12-12T09:21:24.565Z,93.70
2017-12-12T09:22:28.598Z,93.40
2017-12-12T09:23:33.395Z,93.50
2017-12-12T09:24:38.211Z,93.40
2017-12-12T09:25:42.478Z,93.40
2017-12-12T09:26:46.590Z,92.50
2017-12-12T09:27:50.793Z,92.70
2017-12-12T09:28:55.043Z,92.50
2017-12-12T09:29:59.994Z,92.30
2017-12-12T09:31:04.181Z,92.30
2017-12-12T09:32:09.161Z,92.40
2017-12-12T09:33:13.712Z,92.40
2017-12-12T09:34:18.682Z,92.10
2017-12-12T09:35:22.955Z,92.10
2017-12-12T09:36:27.002Z,92.10
2017-12-12T09:37:31.148Z,91.70
2017-12-12T09:38:35.683Z,91.80
2017-12-12T09:39:39.799Z,92.20
2017-12-12T09:40:43.884Z,92.00
2017-12-12T09:41:48.136Z,91.70
2017-12-12T09:42:52.225Z,91.60
2017-12-12T09:43:56.318Z,91.70
2017-12-12T09:45:00.411Z,91.90
2017-12-12T09:46:04.747Z,92.10
2017-12-12T09:47:08.964Z,91.50
2017-12-12T09:48:13.251Z,91.80
2017-12-12T09:49:17.812Z,91.40
2017-12-12T09:50:22.848Z,91.50
2017-12-12T09:51:27.111Z,91.40
2017-12-12T09:52:31.345Z,91.50
2017-12-12T09:53:36.342Z,91.60
2017-12-12T09:54:40.873Z,91.60
2017-12-12T09:55:45.967Z,92.10
2017-12-12T09:56:50.086Z,92.10
2017-12-12T09:57:54.950Z,92.10
2017-12-12T09:58:59.135Z,92.40
2017-12-12T10:00:04.580Z,91.80
2017-12-12T10:01:08.689Z,91.80
2017-12-12T10:02:12.775Z,92.00
2017-12-12T10:03:17.623Z,91.40
2017-12-12T10:04:21.839Z,91.40
2017-12-12T10:05:28.287Z,91.50
2017-12-12T10:06:32.498Z,91.60
2017-12-12T10:07:36.781Z,91.80
2017-12-12T10:08:41.063Z,91.60
2017-12-12T10:09:46.341Z,91.40
2017-12-12T10:10:50.654Z,91.40
2017-12-12T10:11:55.037Z,91.40
2017-12-12T10:12:59.160Z,91.30
2017-12-12T10:14:03.456Z,91.30
2017-12-12T10:15:07.627Z,90.70
2017-12-12T10:16:12.534Z,90.80
2017-12-12T10:17:16.682Z,90.80
2017-12-12T10:18:20.864Z,90.90
2017-12-12T10:19:25.764Z,90.30
2017-12-12T10:20:29.841Z,90.50
2017-12-12T10:21:33.873Z,90.60
2017-12-12T10:22:38.713Z,90.10
2017-12-12T10:23:43.076Z,90.10
2017-12-12T10:24:47.139Z,90.40
2017-12-12T10:25:51.272Z,90.10
2017-12-12T10:26:55.348Z,91.70
2017-12-12T10:27:59.512Z,91.10
2017-12-12T10:29:04.313Z,92.70
2017-12-12T10:30:08.767Z,92.70
2017-12-12T10:31:12.934Z,91.50
2017-12-12T10:32:17.136Z,88.30
2017-12-12T10:33:21.159Z,91.00
2017-12-12T10:35:54.851Z,91.20
2017-12-12T10:36:59.901Z,87.00
2017-12-12T10:38:04.546Z,87.00
2017-12-12T10:39:08.793Z,85.80
2017-12-12T10:40:13.833Z,90.50
2017-12-12T10:41:19.079Z,89.20
2017-12-12T10:42:23.210Z,89.10
2017-12-12T10:43:27.798Z,88.70
2017-12-12T10:44:32.207Z,90.00
2017-12-12T10:45:36.854Z,88.90
2017-12-12T10:46:41.254Z,89.80
2017-12-12T10:47:45.852Z,90.80
2017-12-12T10:48:50.398Z,88.50
2017-12-12T10:49:55.050Z,88.40
2017-12-12T10:50:59.454Z,89.60
2017-12-12T10:52:05.492Z,89.30
2017-12-12T10:53:10.752Z,90.00
2017-12-12T10:54:15.247Z,90.00
2017-12-12T10:55:20.631Z,90.20
2017-12-12T10:56:25.018Z,90.10
2017-12-12T10:57:29.437Z,90.20
2017-12-12T10:58:33.825Z,90.10
2017-12-12T10:59:38.635Z,90.40
2017-12-12T11:00:42.884Z,90.60
2017-12-12T11:01:47.167Z,90.80
2017-12-12T11:02:52.104Z,91.00
2017-12-12T11:03:56.178Z,91.00
2017-12-12T11:05:00.589Z,91.00
2017-12-12T11:06:04.725Z,91.30
2017-12-12T11:07:09.176Z,91.60
2017-12-12T11:08:14.094Z,91.70
2017-12-12T11:09:19.322Z,92.00
2017-12-12T11:10:24.351Z,92.00
2017-12-12T11:11:29.395Z,92.30
2017-12-12T11:12:33.466Z,92.20
2017-12-12T11:13:37.717Z,92.30
2017-12-12T11:14:41.735Z,92.70
2017-12-12T11:15:45.757Z,92.90
2017-12-12T11:16:49.908Z,92.50
2017-12-12T11:17:54.188Z,92.50
2017-12-12T11:18:58.330Z,92.30
2017-12-12T11:20:02.493Z,92.40
2017-12-12T11:21:06.843Z,92.80
2017-12-12T11:22:11.194Z,92.50
2017-12-12T11:23:15.481Z,92.50
2017-12-12T11:24:19.756Z,92.40
2017-12-12T11:25:24.141Z,92.60
2017-12-12T11:26:30.933Z,92.10
2017-12-12T11:27:35.569Z,92.00
2017-12-12T11:28:39.990Z,92.00
2017-12-12T11:29:44.264Z,91.90
2017-12-12T11:30:48.565Z,91.70
2017-12-12T11:31:53.493Z,91.70
2017-12-12T11:32:57.654Z,92.20
2017-12-12T11:34:01.859Z,92.00
2017-12-12T11:35:05.976Z,92.10
2017-12-12T11:36:10.962Z,92.00
2017-12-12T11:37:15.237Z,92.00
2017-12-12T11:38:19.365Z,91.70
2017-12-12T11:39:23.409Z,91.40
2017-12-12T11:40:28.675Z,91.60
2017-12-12T11:41:32.804Z,91.60
2017-12-12T11:42:37.054Z,91.70
2017-12-12T11:43:42.119Z,91.20
2017-12-12T11:44:46.295Z,91.20
2017-12-12T11:45:50.553Z,91.30
2017-12-12T11:46:55.016Z,91.10
2017-12-12T11:47:59.338Z,91.00
2017-12-12T11:49:03.687Z,90.80
2017-12-12T11:50:08.082Z,91.10
2017-12-12T11:51:12.415Z,91.30
2017-12-12T11:52:16.722Z,91.20
2017-12-12T11:53:21.078Z,90.90
2017-12-12T11:54:25.369Z,90.70
2017-12-12T11:55:29.806Z,90.70
2017-12-12T11:56:34.237Z,90.90
2017-12-12T11:57:39.378Z,91.30
2017-12-12T11:58:43.837Z,91.30
2017-12-12T11:59:48.208Z,90.70
2017-12-12T12:00:52.390Z,90.50
2017-12-12T12:01:56.863Z,90.80
2017-12-12T12:03:01.405Z,91.10
2017-12-12T12:04:05.613Z,91.40
2017-12-12T12:05:10.347Z,91.40
2017-12-12T12:06:14.690Z,91.50
2017-12-12T12:07:18.949Z,91.20
2017-12-12T12:08:23.267Z,91.00
2017-12-12T12:09:27.334Z,90.90
2017-12-12T12:10:31.774Z,90.70
2017-12-12T12:11:35.886Z,90.70
2017-12-12T12:12:40.105Z,91.00
2017-12-12T12:13:44.352Z,91.10
2017-12-12T12:14:48.519Z,90.70
2017-12-12T12:15:53.358Z,91.40
2017-12-12T12:16:57.828Z,91.30
2017-12-12T12:18:03.108Z,91.50
2017-12-12T12:19:07.493Z,91.50
2017-12-12T12:20:11.768Z,91.30
2017-12-12T12:21:16.033Z,90.70
2017-12-12T12:22:20.404Z,90.80
2017-12-12T12:23:25.691Z,90.10
2017-12-12T12:24:30.064Z,90.10
2017-12-12T12:25:34.408Z,90.20
2017-12-12T12:26:38.797Z,90.00
2017-12-12T12:27:43.169Z,90.10
2017-12-12T12:28:48.739Z,90.00
2017-12-12T12:29:52.973Z,90.00
2017-12-12T12:30:57.434Z,90.00
2017-12-12T12:33:19.034Z,90.10
2017-12-12T12:34:24.030Z,88.80
2017-12-12T12:35:28.480Z,88.80
2017-12-12T12:36:33.406Z,89.80
2017-12-12T12:37:37.619Z,89.80
2017-12-12T12:38:42.091Z,89.20
2017-12-12T12:39:46.349Z,88.30
2017-12-12T12:40:50.658Z,89.50
2017-12-12T12:41:54.778Z,90.00
2017-12-12T12:42:59.018Z,90.50
2017-12-12T12:44:03.139Z,90.10
2017-12-12T12:45:08.298Z,89.50
2017-12-12T12:46:12.601Z,89.50
2017-12-12T12:47:17.186Z,89.30
2017-12-12T12:48:22.107Z,87.90
2017-12-12T12:49:27.106Z,87.40
2017-12-12T12:50:31.440Z,87.40
2017-12-12T12:51:36.463Z,87.90
2017-12-12T12:52:41.689Z,86.40
2017-12-12T12:53:46.679Z,86.60
2017-12-12T12:54:50.845Z,86.60
2017-12-12T12:55:54.921Z,86.60
2017-12-12T12:57:00.167Z,84.30
2017-12-12T12:58:04.405Z,84.40
2017-12-12T12:59:08.565Z,84.20
2017-12-12T13:00:17.740Z,83.00
2017-12-12T13:01:22.055Z,83.00
2017-12-12T13:02:26.322Z,83.10
2017-12-12T13:03:30.432Z,83.70
2017-12-12T13:04:34.516Z,84.20
2017-12-12T13:05:38.566Z,84.00
2017-12-12T13:06:42.643Z,83.80
2017-12-12T13:07:46.822Z,84.60
2017-12-12T13:08:50.960Z,85.60
2017-12-12T13:09:55.882Z,86.00
2017-12-12T13:11:00.275Z,86.00
2017-12-12T13:12:04.358Z,86.80
2017-12-12T13:13:08.808Z,88.00
2017-12-12T13:14:12.873Z,87.70
2017-12-12T13:15:17.085Z,87.80
2017-12-12T13:16:21.338Z,87.70
2017-12-12T13:17:26.087Z,86.90
2017-12-12T13:18:31.054Z,87.90
2017-12-12T13:19:35.494Z,87.90
2017-12-12T13:20:39.704Z,89.00
2017-12-12T13:21:44.904Z,89.20
2017-12-12T13:22:49.261Z,89.10
2017-12-12T13:23:53.748Z,88.50
2017-12-12T13:24:58.185Z,87.80
2017-12-12T13:26:02.338Z,87.60
2017-12-12T13:27:06.450Z,87.00
2017-12-12T13:28:10.724Z,87.40
2017-12-12T13:29:15.617Z,87.60
2017-12-12T13:30:19.947Z,88.20
2017-12-12T13:31:24.318Z,88.60
2017-12-12T13:32:29.386Z,89.70
2017-12-12T13:33:33.964Z,89.70
2017-12-12T13:34:38.359Z,89.70
2017-12-12T13:35:44.116Z,90.30
2017-12-12T13:36:49.120Z,90.30
2017-12-12T13:37:53.382Z,90.20
2017-12-12T13:38:57.512Z,90.40
2017-12-12T13:40:01.635Z,90.30
2017-12-12T13:41:06.582Z,90.20
2017-12-12T13:42:11.234Z,90.20
2017-12-12T13:43:15.486Z,90.50
2017-12-12T13:44:21.159Z,90.80
2017-12-12T13:45:47.995Z,90.80
2017-12-12T13:46:52.510Z,91.20
2017-12-12T13:47:57.256Z,91.20
2017-12-12T13:49:01.795Z,91.20
2017-12-12T13:50:06.987Z,91.00
2017-12-12T13:51:11.338Z,91.00
2017-12-12T13:52:16.539Z,91.10
2017-12-12T13:53:20.833Z,91.10
2017-12-12T13:54:26.283Z,91.10
2017-12-12T13:55:30.824Z,91.10